createdAt,value
2022-12-10T00:01:11.887Z,68.27
2022-12-10T00:03:38.505Z,72.93
2022-12-10T00:06:06.951Z,66.90
2022-12-10T00:08:34.892Z,77.03
2022-12-10T00:11:04.231Z,93.73
2022-12-10T00:13:31.164Z,63.47
2022-12-10T00:16:00.854Z,49.03
2022-12-10T00:18:27.598Z,70.03
2022-12-10T00:20:55.316Z,49.27
2022-12-10T00:23:23.560Z,55.83
2022-12-10T00:25:50.593Z,49.53
2022-12-10T00:28:17.163Z,49.60
2022-12-10T00:30:43.814Z,46.80
2022-12-10T00:33:10.767Z,47.87
2022-12-10T00:35:37.673Z,61.77
2022-12-10T00:38:04.520Z,52.47
2022-12-10T00:40:31.108Z,49.53
2022-12-10T00:42:57.710Z,60.90
2022-12-10T00:45:24.285Z,51.90
2022-12-10T00:47:50.917Z,48.20
2022-12-10T00:50:17.492Z,54.03
2022-12-10T00:52:44.089Z,47.37
2022-12-10T00:55:10.715Z,51.33
2022-12-10T00:57:37.361Z,52.50
2022-12-10T01:00:05.065Z,48.80
2022-12-10T01:02:31.814Z,54.50
2022-12-10T01:04:58.534Z,45.83
2022-12-10T01:07:25.164Z,48.13
2022-12-10T01:09:51.754Z,51.97
2022-12-10T01:12:18.416Z,57.77
2022-12-10T01:14:45.043Z,51.67
2022-12-10T01:17:11.617Z,50.90
2022-12-10T01:19:38.275Z,51.63
2022-12-10T01:22:04.960Z,52.80
2022-12-10T01:24:31.719Z,52.73
2022-12-10T01:26:59.109Z,50.63
2022-12-10T01:29:27.589Z,55.83
2022-12-10T01:31:55.901Z,53.13
2022-12-10T01:34:22.802Z,54.83
2022-12-10T01:36:53.123Z,58.70
2022-12-10T01:39:21.595Z,48.90
2022-12-10T01:41:56.780Z,50.50
2022-12-10T01:44:23.275Z,54.37
2022-12-10T01:46:55.394Z,55.60
2022-12-10T01:49:24.748Z,63.60
2022-12-10T01:51:53.844Z,56.30
2022-12-10T01:54:26.044Z,60.10
2022-12-10T01:56:59.465Z,57.53
2022-12-10T01:59:27.099Z,52.20
2022-12-10T02:02:09.448Z,50.50
2022-12-10T02:05:03.613Z,47.20
2022-12-10T02:07:58.436Z,50.70
2022-12-10T02:10:51.115Z,45.87
2022-12-10T02:13:44.199Z,45.20
2022-12-10T02:16:25.053Z,47.90
2022-12-10T02:19:01.419Z,43.90
2022-12-10T02:21:35.014Z,47.97
2022-12-10T02:24:05.371Z,45.17
2022-12-10T02:27:01.650Z,51.20
2022-12-10T02:29:30.910Z,48.40
2022-12-10T02:32:03.224Z,48.60
2022-12-10T02:34:35.514Z,51.30
2022-12-10T02:37:08.583Z,49.20
2022-12-10T02:39:40.284Z,44.53
2022-12-10T02:42:08.467Z,53.90
2022-12-10T02:44:37.449Z,44.23
2022-12-10T02:47:06.299Z,44.10
2022-12-10T02:49:37.893Z,49.60
2022-12-10T02:52:13.773Z,58.70
2022-12-10T02:54:45.664Z,49.60
2022-12-10T02:57:31.453Z,45.90
2022-12-10T03:00:08.000Z,43.27
2022-12-10T03:02:47.350Z,44.30
2022-12-10T03:05:23.322Z,45.33
2022-12-10T03:07:58.131Z,50.50
2022-12-10T03:10:49.620Z,47.57
2022-12-10T03:13:17.495Z,48.73
2022-12-10T03:15:45.401Z,48.17
2022-12-10T03:18:13.474Z,55.13
2022-12-10T03:20:42.947Z,53.00
2022-12-10T03:23:12.360Z,52.03
2022-12-10T03:25:39.768Z,51.23
2022-12-10T03:28:07.798Z,45.33
2022-12-10T03:30:35.065Z,47.53
2022-12-10T03:33:02.359Z,45.67
2022-12-10T03:35:28.998Z,45.00
2022-12-10T03:37:56.256Z,49.87
2022-12-10T03:40:24.440Z,42.30
2022-12-10T03:42:51.115Z,48.70
2022-12-10T03:45:17.878Z,47.90
2022-12-10T03:47:44.822Z,46.23
2022-12-10T03:50:11.709Z,45.60
2022-12-10T03:52:38.418Z,49.20
2022-12-10T03:55:05.469Z,46.50
2022-12-10T03:57:32.127Z,43.70
2022-12-10T03:59:58.711Z,49.53
2022-12-10T04:02:25.286Z,47.50
2022-12-10T04:04:51.950Z,47.77
2022-12-10T04:07:18.629Z,50.70
2022-12-10T04:09:45.211Z,44.70
2022-12-10T04:12:11.776Z,51.10
2022-12-10T04:14:56.779Z,48.93
2022-12-10T04:17:23.383Z,48.80
2022-12-10T04:19:49.892Z,46.20
2022-12-10T04:22:35.094Z,45.80
2022-12-10T04:25:20.416Z,45.03
2022-12-10T04:27:47.741Z,45.50
2022-12-10T04:30:14.372Z,50.03
2022-12-10T04:32:41.023Z,50.23
2022-12-10T04:35:08.048Z,47.73
2022-12-10T04:37:34.652Z,44.70
2022-12-10T04:40:01.313Z,44.90
2022-12-10T04:42:28.006Z,46.63
2022-12-10T04:44:54.642Z,43.30
2022-12-10T04:47:21.242Z,48.53
2022-12-10T04:49:47.807Z,44.53
2022-12-10T04:52:15.778Z,39.57
2022-12-10T04:54:43.018Z,44.30
2022-12-10T04:57:10.507Z,48.40
2022-12-10T04:59:37.532Z,45.40
2022-12-10T05:02:05.377Z,48.63
2022-12-10T05:04:32.113Z,45.93
2022-12-10T05:06:58.702Z,46.77
2022-12-10T05:09:25.662Z,47.33
2022-12-10T05:11:52.176Z,49.20
2022-12-10T05:14:18.776Z,48.00
2022-12-10T05:16:45.570Z,49.80
2022-12-10T05:19:12.704Z,46.97
2022-12-10T05:21:58.151Z,55.70
2022-12-10T05:24:25.127Z,48.47
2022-12-10T05:26:52.435Z,54.50
2022-12-10T05:29:19.934Z,46.40
2022-12-10T05:31:47.048Z,49.27
2022-12-10T05:34:13.704Z,55.80
2022-12-10T05:36:40.296Z,61.00
2022-12-10T05:39:07.557Z,60.40
2022-12-10T05:41:37.459Z,57.07
2022-12-10T05:44:04.118Z,51.93
2022-12-10T05:46:32.446Z,58.57
2022-12-10T05:49:01.145Z,60.43
2022-12-10T05:51:30.930Z,64.13
2022-12-10T05:53:59.802Z,60.07
2022-12-10T05:56:27.062Z,53.77
2022-12-10T05:58:59.000Z,58.90
2022-12-10T06:01:27.939Z,52.23
2022-12-10T06:03:54.691Z,63.93
2022-12-10T06:06:26.048Z,61.37
2022-12-10T06:08:52.828Z,62.90
2022-12-10T06:11:19.909Z,60.57
2022-12-10T06:13:50.478Z,54.40
2022-12-10T06:16:20.017Z,53.50
2022-12-10T06:18:46.673Z,52.63
2022-12-10T06:21:15.415Z,76.77
2022-12-10T06:23:43.009Z,73.37
2022-12-10T06:26:15.303Z,77.67
2022-12-10T06:28:42.657Z,73.93
2022-12-10T06:31:09.279Z,57.83
2022-12-10T06:33:35.966Z,66.13
2022-12-10T06:36:08.100Z,71.13
2022-12-10T06:38:35.545Z,65.23
2022-12-10T06:41:05.513Z,82.37
2022-12-10T06:43:32.064Z,69.40
2022-12-10T06:45:58.683Z,76.97
2022-12-10T06:48:25.817Z,84.50
2022-12-10T06:50:52.389Z,101.20
2022-12-10T06:53:19.614Z,92.80
2022-12-10T06:55:46.177Z,96.13
2022-12-10T06:58:12.797Z,95.33
2022-12-10T07:00:39.425Z,103.30
2022-12-10T07:03:06.011Z,77.93
2022-12-10T07:05:32.643Z,80.73
2022-12-10T07:07:59.306Z,88.13
2022-12-10T07:10:26.641Z,82.07
2022-12-10T07:12:53.275Z,70.93
2022-12-10T07:15:20.643Z,72.00
2022-12-10T07:17:47.243Z,74.43
2022-12-10T07:20:13.924Z,73.10
2022-12-10T07:22:40.538Z,70.83
2022-12-10T07:25:07.438Z,74.17
2022-12-10T07:27:34.131Z,78.67
2022-12-10T07:30:03.671Z,71.90
2022-12-10T07:32:34.185Z,80.90
2022-12-10T07:35:17.206Z,72.73
2022-12-10T07:37:44.211Z,80.27
2022-12-10T07:40:11.623Z,76.90
2022-12-10T07:42:38.220Z,79.50
2022-12-10T07:45:05.195Z,82.63
2022-12-10T07:47:31.840Z,96.67
2022-12-10T07:50:00.532Z,86.97
2022-12-10T07:52:27.122Z,85.83
2022-12-10T07:54:53.755Z,74.80
2022-12-10T07:57:20.381Z,70.57
2022-12-10T07:59:49.506Z,80.57
2022-12-10T08:02:16.145Z,75.30
2022-12-10T08:04:42.707Z,71.97
2022-12-10T08:07:11.000Z,73.30
2022-12-10T08:09:37.602Z,74.40
2022-12-10T08:12:05.726Z,73.17
2022-12-10T08:14:32.406Z,70.60
2022-12-10T08:16:59.028Z,75.63
2022-12-10T08:19:31.345Z,70.50
2022-12-10T08:21:58.375Z,68.70
2022-12-10T08:24:25.026Z,71.90
2022-12-10T08:26:51.631Z,74.23
2022-12-10T08:29:18.182Z,71.80
2022-12-10T08:31:44.874Z,67.67
2022-12-10T08:34:16.976Z,65.50
2022-12-10T08:36:44.170Z,71.47
2022-12-10T08:39:17.385Z,68.83
2022-12-10T08:41:45.452Z,69.80
2022-12-10T08:44:14.986Z,75.17
2022-12-10T08:46:44.584Z,60.80
2022-12-10T08:49:13.405Z,58.83
2022-12-10T08:51:47.510Z,62.77
2022-12-10T08:54:14.154Z,71.53
2022-12-10T08:56:43.055Z,71.83
2022-12-10T08:59:09.719Z,66.77
2022-12-10T09:01:36.370Z,66.03
2022-12-10T09:04:03.036Z,63.47
2022-12-10T09:06:30.146Z,57.33
2022-12-10T09:08:56.686Z,67.07
2022-12-10T09:11:32.649Z,61.63
2022-12-10T09:13:59.618Z,62.17
2022-12-10T09:16:34.746Z,58.30
2022-12-10T09:19:01.944Z,63.03
2022-12-10T09:21:28.923Z,61.63
2022-12-10T09:23:55.486Z,57.03
2022-12-10T09:26:22.592Z,68.47
2022-12-10T09:28:49.937Z,54.50
2022-12-10T09:31:20.291Z,56.50
2022-12-10T09:33:49.114Z,50.03
2022-12-10T09:36:15.853Z,55.47
2022-12-10T09:38:44.457Z,47.80
2022-12-10T09:41:32.069Z,52.37
2022-12-10T09:44:21.001Z,59.67
2022-12-10T09:46:56.859Z,55.23
2022-12-10T09:49:38.825Z,51.53
2022-12-10T09:52:07.340Z,52.60
2022-12-10T09:54:37.805Z,63.10
2022-12-10T09:57:06.750Z,54.73
2022-12-10T09:59:41.933Z,53.13
2022-12-10T10:02:21.039Z,52.30
2022-12-10T10:04:49.510Z,57.50
2022-12-10T10:07:23.095Z,28.27
2022-12-10T10:09:50.349Z,16.87
2022-12-10T10:12:24.737Z,16.20
2022-12-10T10:14:51.349Z,17.00
2022-12-10T10:17:38.225Z,14.57
2022-12-10T10:20:05.641Z,27.33
2022-12-10T10:22:32.565Z,42.57
2022-12-10T10:25:03.474Z,43.43
2022-12-10T10:27:34.447Z,59.57
2022-12-10T10:30:05.984Z,63.03
2022-12-10T10:32:41.771Z,54.67
2022-12-10T10:35:11.019Z,66.40
2022-12-10T10:37:42.762Z,64.73
2022-12-10T10:40:28.198Z,64.83
2022-12-10T10:42:56.841Z,61.57
2022-12-10T10:45:38.495Z,59.40
2022-12-10T10:48:15.529Z,61.20
2022-12-10T10:50:45.100Z,72.53
2022-12-10T10:53:22.541Z,75.97
2022-12-10T10:55:49.296Z,63.80
2022-12-10T10:58:19.903Z,62.33
2022-12-10T11:00:58.481Z,60.50
2022-12-10T11:03:26.750Z,63.33
2022-12-10T11:05:55.127Z,56.67
2022-12-10T11:08:23.989Z,47.87
2022-12-10T11:11:06.267Z,52.20
2022-12-10T11:13:36.460Z,49.47
2022-12-10T11:16:24.371Z,45.60
2022-12-10T11:19:05.136Z,53.13
2022-12-10T11:21:33.493Z,36.73
2022-12-10T11:24:01.332Z,30.17
2022-12-10T11:26:41.711Z,23.27
2022-12-10T11:29:39.550Z,22.40
2022-12-10T11:32:14.201Z,19.80
2022-12-10T11:34:59.834Z,30.67
2022-12-10T11:37:49.011Z,47.40
2022-12-10T11:40:28.205Z,51.97
2022-12-10T11:43:25.891Z,46.20
2022-12-10T11:46:19.354Z,34.57
2022-12-10T11:49:00.058Z,31.27
2022-12-10T11:51:41.980Z,28.00
2022-12-10T11:54:46.879Z,31.03
2022-12-10T11:58:09.299Z,24.23
2022-12-10T12:00:47.044Z,20.30
2022-12-10T12:03:30.913Z,20.03
2022-12-10T12:06:40.855Z,21.70
2022-12-10T12:09:36.755Z,21.53
2022-12-10T12:12:15.977Z,19.57
2022-12-10T12:15:14.974Z,24.63
2022-12-10T12:17:44.287Z,25.87
2022-12-10T12:20:26.894Z,22.80
2022-12-10T12:23:03.801Z,21.23
2022-12-10T12:25:37.741Z,23.60
2022-12-10T12:28:07.796Z,22.57
2022-12-10T12:30:36.120Z,21.17
2022-12-10T12:33:12.965Z,23.30
2022-12-10T12:35:39.449Z,20.60
2022-12-10T12:38:27.949Z,22.20
2022-12-10T12:41:04.108Z,26.10
2022-12-10T12:43:36.694Z,24.37
2022-12-10T12:46:06.435Z,25.80
2022-12-10T12:48:45.411Z,20.73
2022-12-10T12:51:33.129Z,20.60
2022-12-10T12:53:59.859Z,19.20
2022-12-10T12:57:06.087Z,17.57
2022-12-10T12:59:56.673Z,20.43
2022-12-10T13:02:29.492Z,25.90
2022-12-10T13:04:56.353Z,23.00
2022-12-10T13:07:22.963Z,21.70
2022-12-10T13:10:09.562Z,18.97
2022-12-10T13:12:39.424Z,19.77
2022-12-10T13:15:16.160Z,21.33
2022-12-10T13:18:05.227Z,18.83
2022-12-10T13:20:40.590Z,22.00
2022-12-10T13:23:25.568Z,19.60
2022-12-10T13:25:55.883Z,20.27
2022-12-10T13:28:27.127Z,23.87
2022-12-10T13:31:17.788Z,23.20
2022-12-10T13:33:53.122Z,22.20
2022-12-10T13:36:29.182Z,19.77
2022-12-10T13:39:37.422Z,20.23
2022-12-10T13:42:25.617Z,19.13
2022-12-10T13:45:05.086Z,23.80
2022-12-10T13:47:37.349Z,23.27
2022-12-10T13:50:18.304Z,24.00
2022-12-10T13:52:53.653Z,25.70
2022-12-10T13:55:35.346Z,26.73
2022-12-10T13:58:09.599Z,20.60
2022-12-10T14:00:41.344Z,23.17
2022-12-10T14:03:29.794Z,22.70
2022-12-10T14:06:11.740Z,22.20
2022-12-10T14:08:40.098Z,20.03
2022-12-10T14:11:14.258Z,20.83
2022-12-10T14:13:44.024Z,21.97
2022-12-10T14:16:13.436Z,20.30
2022-12-10T14:18:42.864Z,17.33
2022-12-10T14:21:10.033Z,18.10
2022-12-10T14:23:46.225Z,19.70
2022-12-10T14:26:19.366Z,19.87
2022-12-10T14:28:51.732Z,23.17
2022-12-10T14:31:26.613Z,17.27
2022-12-10T14:33:54.143Z,19.57
2022-12-10T14:36:35.938Z,18.07
2022-12-10T14:39:02.772Z,67.30
2022-12-10T14:41:36.014Z,22.20
2022-12-10T14:44:05.928Z,53.53
2022-12-10T14:46:33.289Z,21.67
2022-12-10T14:49:00.170Z,29.37
2022-12-10T14:51:33.702Z,25.43
2022-12-10T14:54:00.485Z,27.97
2022-12-10T14:56:31.456Z,24.63
2022-12-10T14:59:12.822Z,24.83
2022-12-10T15:01:44.483Z,46.87
2022-12-10T15:04:19.176Z,42.07
2022-12-10T15:06:51.470Z,45.60
2022-12-10T15:09:23.693Z,35.03
2022-12-10T15:11:57.876Z,32.90
2022-12-10T15:14:25.461Z,39.17
2022-12-10T15:16:57.189Z,45.00
2022-12-10T15:19:33.699Z,35.63
2022-12-10T15:22:19.014Z,49.20
2022-12-10T15:24:45.730Z,25.57
2022-12-10T15:27:18.030Z,39.30
2022-12-10T15:29:44.735Z,58.10
2022-12-10T15:32:18.444Z,24.77
2022-12-10T15:34:48.429Z,20.00
2022-12-10T15:37:19.452Z,24.03
2022-12-10T15:39:49.592Z,19.63
2022-12-10T15:42:42.372Z,24.53
2022-12-10T15:45:27.816Z,20.20
2022-12-10T15:48:00.574Z,22.57
2022-12-10T15:50:27.801Z,21.63
2022-12-10T15:52:54.480Z,23.03
2022-12-10T15:55:21.115Z,19.10
2022-12-10T15:57:50.044Z,20.30
2022-12-10T16:00:27.468Z,18.87
2022-12-10T16:02:59.870Z,19.83
2022-12-10T16:05:35.787Z,18.90
2022-12-10T16:08:10.769Z,21.37
2022-12-10T16:10:37.416Z,18.73
2022-12-10T16:13:12.472Z,23.90
2022-12-10T16:15:47.000Z,26.37
2022-12-10T16:18:13.668Z,26.13
2022-12-10T16:20:40.365Z,24.37
2022-12-10T16:23:09.275Z,33.37
2022-12-10T16:25:36.588Z,26.17
2022-12-10T16:28:03.652Z,26.60
2022-12-10T16:30:47.967Z,26.13
2022-12-10T16:33:15.386Z,23.50
2022-12-10T16:35:42.069Z,23.40
2022-12-10T16:38:10.992Z,22.63
2022-12-10T16:40:39.468Z,22.63
2022-12-10T16:43:06.852Z,22.70
2022-12-10T16:45:40.024Z,20.23
2022-12-10T16:48:06.787Z,19.80
2022-12-10T16:50:34.326Z,21.20
2022-12-10T16:53:27.242Z,20.03
2022-12-10T16:55:55.683Z,25.40
2022-12-10T16:58:22.592Z,21.00
2022-12-10T17:00:50.916Z,24.73
2022-12-10T17:03:24.616Z,22.57
2022-12-10T17:05:54.441Z,22.53
2022-12-10T17:08:21.904Z,24.87
2022-12-10T17:11:07.781Z,25.47
2022-12-10T17:13:35.164Z,24.17
2022-12-10T17:16:02.254Z,24.43
2022-12-10T17:18:29.104Z,21.00
2022-12-10T17:20:55.728Z,23.23
2022-12-10T17:23:22.848Z,21.67
2022-12-10T17:25:50.011Z,21.50
2022-12-10T17:28:22.029Z,23.63
2022-12-10T17:30:49.779Z,23.43
2022-12-10T17:33:18.787Z,25.23
2022-12-10T17:35:46.812Z,22.63
2022-12-10T17:38:24.662Z,30.13
2022-12-10T17:40:52.401Z,28.13
2022-12-10T17:43:19.339Z,23.67
2022-12-10T17:45:46.516Z,33.23
2022-12-10T17:48:14.959Z,28.23
2022-12-10T17:50:44.262Z,25.63
2022-12-10T17:53:15.223Z,24.57
2022-12-10T17:55:48.165Z,22.73
2022-12-10T17:58:15.988Z,21.70
2022-12-10T18:00:43.590Z,25.20
2022-12-10T18:03:10.293Z,24.00
2022-12-10T18:05:36.880Z,24.20
2022-12-10T18:08:03.793Z,25.80
2022-12-10T18:10:32.673Z,22.87
2022-12-10T18:13:00.048Z,23.87
2022-12-10T18:15:29.871Z,27.33
2022-12-10T18:17:57.176Z,22.63
2022-12-10T18:20:33.342Z,24.07
2022-12-10T18:23:01.199Z,24.73
2022-12-10T18:25:28.834Z,22.53
2022-12-10T18:27:57.704Z,23.90
2022-12-10T18:30:25.671Z,25.47
2022-12-10T18:32:52.470Z,23.20
2022-12-10T18:35:19.409Z,24.33
2022-12-10T18:37:46.083Z,24.17
2022-12-10T18:40:19.173Z,22.20
2022-12-10T18:42:47.474Z,23.30
2022-12-10T18:45:14.770Z,26.30
2022-12-10T18:47:41.453Z,21.67
2022-12-10T18:50:19.394Z,23.30
2022-12-10T18:52:46.039Z,22.00
2022-12-10T18:55:13.010Z,19.87
2022-12-10T18:57:44.815Z,25.60
2022-12-10T19:00:31.278Z,22.23
2022-12-10T19:02:57.979Z,21.20
2022-12-10T19:05:25.290Z,20.63
2022-12-10T19:07:51.921Z,23.27
2022-12-10T19:10:21.365Z,26.30
2022-12-10T19:12:48.042Z,22.80
2022-12-10T19:15:16.760Z,21.93
2022-12-10T19:17:43.365Z,22.40
2022-12-10T19:20:18.152Z,22.23
2022-12-10T19:22:45.495Z,19.77
2022-12-10T19:25:12.474Z,24.50
2022-12-10T19:27:39.980Z,24.27
2022-12-10T19:30:10.640Z,22.80
2022-12-10T19:32:37.243Z,23.10
2022-12-10T19:35:04.015Z,23.70
2022-12-10T19:37:31.497Z,25.23
2022-12-10T19:39:58.097Z,28.00
2022-12-10T19:42:24.729Z,29.93
2022-12-10T19:44:51.310Z,27.57
2022-12-10T19:47:18.171Z,24.50
2022-12-10T19:49:44.817Z,22.83
2022-12-10T19:52:11.489Z,25.23
2022-12-10T19:54:38.074Z,27.10
2022-12-10T19:57:04.656Z,26.03
2022-12-10T19:59:31.374Z,26.53
2022-12-10T20:01:58.032Z,26.70
2022-12-10T20:04:24.870Z,26.77
2022-12-10T20:06:51.524Z,28.37
2022-12-10T20:09:21.248Z,26.63
2022-12-10T20:11:48.695Z,24.57
2022-12-10T20:14:15.656Z,21.77
2022-12-10T20:16:43.386Z,24.90
2022-12-10T20:19:11.879Z,27.17
2022-12-10T20:21:38.567Z,22.80
2022-12-10T20:24:05.673Z,29.43
2022-12-10T20:26:36.008Z,29.07
2022-12-10T20:29:03.455Z,29.93
2022-12-10T20:31:30.366Z,26.33
2022-12-10T20:33:57.077Z,31.07
2022-12-10T20:36:27.697Z,31.80
2022-12-10T20:38:54.322Z,30.10
2022-12-10T20:41:21.159Z,29.20
2022-12-10T20:43:48.450Z,26.97
2022-12-10T20:46:22.709Z,27.83
2022-12-10T20:48:50.351Z,30.13
2022-12-10T20:51:18.663Z,30.93
2022-12-10T20:53:46.258Z,30.47
2022-12-10T20:56:21.480Z,28.30
2022-12-10T20:58:48.969Z,32.90
2022-12-10T21:01:15.717Z,35.60
2022-12-10T21:03:42.637Z,33.33
2022-12-10T21:06:15.708Z,31.73
2022-12-10T21:08:42.527Z,32.27
2022-12-10T21:11:09.109Z,37.87
2022-12-10T21:13:35.881Z,41.70
2022-12-10T21:16:04.373Z,40.20
2022-12-10T21:18:31.892Z,40.20
2022-12-10T21:20:59.988Z,45.47
2022-12-10T21:23:29.018Z,36.93
2022-12-10T21:25:56.441Z,40.33
2022-12-10T21:28:24.033Z,37.80
2022-12-10T21:30:50.767Z,39.80
2022-12-10T21:33:19.229Z,40.10
2022-12-10T21:35:47.247Z,43.00
2022-12-10T21:38:14.254Z,43.10
2022-12-10T21:40:42.210Z,36.83
2022-12-10T21:43:16.777Z,40.17
2022-12-10T21:46:10.398Z,38.87
2022-12-10T21:48:37.024Z,36.10
2022-12-10T21:51:03.748Z,40.77
2022-12-10T21:53:30.404Z,34.70
2022-12-10T21:55:57.023Z,34.70
2022-12-10T21:58:23.871Z,37.80
2022-12-10T22:00:57.063Z,38.63
2022-12-10T22:03:24.331Z,34.50
2022-12-10T22:05:51.059Z,33.57
2022-12-10T22:08:17.731Z,37.80
2022-12-10T22:10:49.840Z,35.13
2022-12-10T22:13:18.549Z,34.10
2022-12-10T22:15:46.751Z,34.77
2022-12-10T22:18:14.515Z,39.53
2022-12-10T22:20:41.576Z,32.43
2022-12-10T22:23:10.774Z,35.30
2022-12-10T22:25:40.658Z,38.00
2022-12-10T22:28:07.298Z,39.00
2022-12-10T22:30:33.967Z,33.30
2022-12-10T22:33:00.571Z,36.27
2022-12-10T22:35:27.213Z,35.73
2022-12-10T22:37:53.830Z,39.37
2022-12-10T22:40:21.206Z,37.80
2022-12-10T22:42:49.806Z,38.90
2022-12-10T22:45:17.100Z,36.70
2022-12-10T22:47:43.822Z,36.83
2022-12-10T22:50:10.569Z,39.10
2022-12-10T22:52:37.224Z,42.77
2022-12-10T22:55:04.306Z,39.70
2022-12-10T22:57:31.155Z,38.30
2022-12-10T22:59:57.865Z,35.00
2022-12-10T23:02:24.736Z,39.53
2022-12-10T23:04:52.442Z,38.93
2022-12-10T23:07:19.702Z,39.30
2022-12-10T23:09:46.414Z,38.47
2022-12-10T23:12:31.863Z,38.93
2022-12-10T23:14:58.544Z,38.73
2022-12-10T23:17:25.362Z,39.73
2022-12-10T23:19:51.941Z,42.17
2022-12-10T23:22:18.616Z,40.27
2022-12-10T23:24:45.224Z,40.60
2022-12-10T23:27:11.781Z,42.07
2022-12-10T23:29:38.437Z,39.20
2022-12-10T23:32:05.785Z,44.43
2022-12-10T23:34:35.984Z,40.00
2022-12-10T23:37:02.642Z,39.00
2022-12-10T23:39:29.570Z,39.93
2022-12-10T23:41:56.306Z,37.97
2022-12-10T23:44:24.193Z,44.87
2022-12-10T23:46:50.793Z,39.13
2022-12-10T23:49:17.447Z,43.77
2022-12-10T23:51:44.031Z,45.47
2022-12-10T23:54:10.664Z,47.00
2022-12-10T23:56:37.449Z,45.73
2022-12-10T23:59:04.044Z,40.50
